Terminal Aerodrome Forecast
Issued by NWS

Home | Current Version | Previous Version | Text Only | Print | Product List | Glossary On
Versions: 1 2 3 4 5 6 7 8 9 10 11 12 13 14 15 16 17 18 19 20
000
FTUS44 KSJT 211130
TAFSOA
TAF
KSOA 211130Z 2112/2212 18011KT 3SM BR VCSH BKN007 OVC013
     FM211400 21010KT P6SM SCT007 OVC013
     FM211500 24010KT P6SM OVC015
     FM211700 27012G20KT P6SM SCT250
     FM220200 01012G20KT P6SM SKC=

USA.gov is the U.S. government's official web portal to all federal, state and local government web resources and services.